createdAt,value
2023-02-08T00:03:40.521Z,6.90
2023-02-08T00:06:09.463Z,6.05
2023-02-08T00:08:37.884Z,7.07
2023-02-08T00:11:06.134Z,6.45
2023-02-08T00:13:34.068Z,6.20
2023-02-08T00:16:01.568Z,5.93
2023-02-08T00:18:28.840Z,6.68
2023-02-08T00:20:57.282Z,6.57
2023-02-08T00:23:26.105Z,6.35
2023-02-08T00:25:53.431Z,6.20
2023-02-08T00:28:20.812Z,6.30
2023-02-08T00:30:48.404Z,6.10
2023-02-08T00:33:15.727Z,6.95
2023-02-08T00:35:42.985Z,6.70
2023-02-08T00:38:10.370Z,6.57
2023-02-08T00:40:37.961Z,6.78
2023-02-08T00:43:06.863Z,6.40
2023-02-08T00:45:34.661Z,6.65
2023-02-08T00:48:01.909Z,7.55
2023-02-08T00:50:29.170Z,7.40
2023-02-08T00:52:58.177Z,7.18
2023-02-08T00:55:25.516Z,7.43
2023-02-08T00:57:52.750Z,7.40
2023-02-08T01:00:20.248Z,8.25
2023-02-08T01:02:47.509Z,8.05
2023-02-08T01:05:14.816Z,7.45
2023-02-08T01:07:42.106Z,8.23
2023-02-08T01:10:12.329Z,8.00
2023-02-08T01:12:39.801Z,8.30
2023-02-08T01:15:07.490Z,8.05
2023-02-08T01:17:34.791Z,8.30
2023-02-08T01:20:02.031Z,9.43
2023-02-08T01:22:30.269Z,8.85
2023-02-08T01:24:57.534Z,8.75
2023-02-08T01:27:24.788Z,8.98
2023-02-08T01:29:52.662Z,9.13
2023-02-08T01:32:20.035Z,8.98
2023-02-08T01:34:47.517Z,8.48
2023-02-08T01:37:14.799Z,9.27
2023-02-08T01:39:42.017Z,8.73
2023-02-08T01:42:14.803Z,8.70
2023-02-08T01:45:15.959Z,8.63
2023-02-08T01:47:46.542Z,7.78
2023-02-08T01:50:15.694Z,8.23
2023-02-08T01:52:45.598Z,8.77
2023-02-08T01:55:18.216Z,8.52
2023-02-08T01:57:46.170Z,7.97
2023-02-08T02:00:18.406Z,8.32
2023-02-08T02:02:47.870Z,8.10
2023-02-08T02:05:17.038Z,8.55
2023-02-08T02:07:44.729Z,8.45
2023-02-08T02:10:29.050Z,8.40
2023-02-08T02:13:03.755Z,8.35
2023-02-08T02:17:58.364Z,7.97
2023-02-08T02:21:04.687Z,8.43
2023-02-08T02:24:03.510Z,8.70
2023-02-08T02:26:45.460Z,8.38
2023-02-08T02:29:30.419Z,8.65
2023-02-08T02:32:12.237Z,8.32
2023-02-08T02:35:05.256Z,9.15
2023-02-08T02:37:49.562Z,8.23
2023-02-08T02:40:16.816Z,8.40
2023-02-08T02:43:12.204Z,8.35
2023-02-08T02:48:48.349Z,8.40
2023-02-08T02:51:44.768Z,8.60
2023-02-08T02:54:26.671Z,8.43
2023-02-08T02:56:59.713Z,8.07
2023-02-08T02:59:28.085Z,8.98
2023-02-08T03:01:56.754Z,8.52
2023-02-08T03:04:33.317Z,9.15
2023-02-08T03:07:09.805Z,8.63
2023-02-08T03:09:46.001Z,8.07
2023-02-08T03:12:39.814Z,8.52
2023-02-08T03:15:40.245Z,7.88
2023-02-08T03:18:42.620Z,7.63
2023-02-08T03:21:20.404Z,7.90
2023-02-08T03:23:47.616Z,8.02
2023-02-08T03:26:31.603Z,7.63
2023-02-08T03:29:03.035Z,7.90
2023-02-08T03:31:48.953Z,8.00
2023-02-08T03:34:46.261Z,7.60
2023-02-08T03:37:27.792Z,7.72
2023-02-08T03:40:02.697Z,7.03
2023-02-08T03:42:33.811Z,7.25
2023-02-08T03:45:30.000Z,6.60
2023-02-08T03:48:00.515Z,7.15
2023-02-08T03:50:34.419Z,6.78
2023-02-08T03:53:02.138Z,7.05
2023-02-08T03:55:33.496Z,6.82
2023-02-08T03:58:16.029Z,7.18
2023-02-08T04:00:49.244Z,7.47
2023-02-08T04:03:27.274Z,7.30
2023-02-08T04:05:55.382Z,7.25
2023-02-08T04:08:23.086Z,7.15
2023-02-08T04:10:50.428Z,7.47
2023-02-08T04:13:17.853Z,6.88
2023-02-08T04:15:45.280Z,7.28
2023-02-08T04:18:13.271Z,7.10
2023-02-08T04:20:40.837Z,7.13
2023-02-08T04:23:08.223Z,7.88
2023-02-08T04:25:35.488Z,7.45
2023-02-08T04:28:02.812Z,6.82
2023-02-08T04:30:30.130Z,7.45
2023-02-08T04:32:59.950Z,7.18
2023-02-08T04:35:27.324Z,7.32
2023-02-08T04:37:54.623Z,6.57
2023-02-08T04:40:21.912Z,7.50
2023-02-08T04:42:49.771Z,6.75
2023-02-08T04:45:17.074Z,6.85
2023-02-08T04:47:44.297Z,7.07
2023-02-08T04:50:11.537Z,6.50
2023-02-08T04:52:38.772Z,6.38
2023-02-08T04:55:06.425Z,6.63
2023-02-08T04:57:33.680Z,6.45
2023-02-08T05:00:00.934Z,6.45
2023-02-08T05:02:28.479Z,6.43
2023-02-08T05:04:55.899Z,6.28
2023-02-08T05:07:23.293Z,6.43
2023-02-08T05:09:50.553Z,6.05
2023-02-08T05:12:17.849Z,6.38
2023-02-08T05:14:45.094Z,6.22
2023-02-08T05:17:12.359Z,6.88
2023-02-08T05:19:39.627Z,6.63
2023-02-08T05:22:06.908Z,6.65
2023-02-08T05:24:34.180Z,6.63
2023-02-08T05:27:01.453Z,6.90
2023-02-08T05:29:28.843Z,7.28
2023-02-08T05:31:56.205Z,7.22
2023-02-08T05:34:23.569Z,8.18
2023-02-08T05:36:50.877Z,7.82
2023-02-08T05:39:18.238Z,7.65
2023-02-08T05:41:45.529Z,7.88
2023-02-08T05:44:12.819Z,8.55
2023-02-08T05:46:40.088Z,8.15
2023-02-08T05:49:08.171Z,7.78
2023-02-08T05:51:35.467Z,7.28
2023-02-08T05:54:02.727Z,7.28
2023-02-08T05:56:30.043Z,6.88
2023-02-08T05:59:00.291Z,7.40
2023-02-08T06:01:27.842Z,7.43
2023-02-08T06:03:55.545Z,6.97
2023-02-08T06:06:22.924Z,7.28
2023-02-08T06:08:50.262Z,7.43
2023-02-08T06:11:19.293Z,6.97
2023-02-08T06:13:47.342Z,7.65
2023-02-08T06:16:15.336Z,7.20
2023-02-08T06:18:42.688Z,6.88
2023-02-08T06:21:10.051Z,6.57
2023-02-08T06:23:37.265Z,7.80
2023-02-08T06:26:04.706Z,7.38
2023-02-08T06:28:32.028Z,7.13
2023-02-08T06:30:59.317Z,8.20
2023-02-08T06:33:26.623Z,7.85
2023-02-08T06:35:54.101Z,7.80
2023-02-08T06:38:21.376Z,8.38
2023-02-08T06:40:49.818Z,7.75
2023-02-08T06:43:18.694Z,7.88
2023-02-08T06:45:47.360Z,7.30
2023-02-08T06:48:15.048Z,7.82
2023-02-08T06:50:42.819Z,7.53
2023-02-08T06:53:10.267Z,8.48
2023-02-08T06:55:37.491Z,8.15
2023-02-08T06:58:04.711Z,8.18
2023-02-08T07:00:32.137Z,8.27
2023-02-08T07:03:00.772Z,8.45
2023-02-08T07:05:28.129Z,7.75
2023-02-08T07:07:55.454Z,7.95
2023-02-08T07:10:22.768Z,7.95
2023-02-08T07:12:50.013Z,8.48
2023-02-08T07:15:17.309Z,9.00
2023-02-08T07:17:44.563Z,8.85
2023-02-08T07:20:12.336Z,8.73
2023-02-08T07:22:40.866Z,7.97
2023-02-08T07:25:09.299Z,8.80
2023-02-08T07:27:36.781Z,9.20
2023-02-08T07:30:05.335Z,8.68
2023-02-08T07:32:34.708Z,8.90
2023-02-08T07:35:02.259Z,9.57
2023-02-08T07:37:29.527Z,9.18
2023-02-08T07:39:56.802Z,9.70
2023-02-08T07:42:24.060Z,9.60
2023-02-08T07:44:51.333Z,9.85
2023-02-08T07:47:18.710Z,9.63
2023-02-08T07:49:46.009Z,8.80
2023-02-08T07:52:13.256Z,8.60
2023-02-08T07:54:40.507Z,8.35
2023-02-08T07:57:08.251Z,8.73
2023-02-08T07:59:35.676Z,8.10
2023-02-08T08:02:03.087Z,8.63
2023-02-08T08:04:30.417Z,8.43
2023-02-08T08:06:57.792Z,8.93
2023-02-08T08:09:25.116Z,8.55
2023-02-08T08:11:52.398Z,8.52
2023-02-08T08:14:19.776Z,7.82
2023-02-08T08:16:47.077Z,8.60
2023-02-08T08:19:14.275Z,8.43
2023-02-08T08:21:41.504Z,8.52
2023-02-08T08:24:08.903Z,8.55
2023-02-08T08:26:36.200Z,8.52
2023-02-08T08:29:03.581Z,9.27
2023-02-08T08:31:31.268Z,9.15
2023-02-08T08:33:58.711Z,8.85
2023-02-08T08:36:25.961Z,9.38
2023-02-08T08:38:53.328Z,9.13
2023-02-08T08:41:23.082Z,9.25
2023-02-08T08:43:50.477Z,8.95
2023-02-08T08:46:17.908Z,9.70
2023-02-08T08:48:45.981Z,9.18
2023-02-08T08:51:14.284Z,9.40
2023-02-08T08:53:41.571Z,9.32
2023-02-08T08:56:08.954Z,9.90
2023-02-08T08:58:36.282Z,10.02
2023-02-08T09:01:03.701Z,10.32
2023-02-08T09:03:31.207Z,10.52
2023-02-08T09:05:58.546Z,10.25
2023-02-08T09:08:25.845Z,10.20
2023-02-08T09:10:53.136Z,10.65
2023-02-08T09:13:21.727Z,10.82
2023-02-08T09:15:49.860Z,10.80
2023-02-08T09:18:17.306Z,10.60
2023-02-08T09:20:45.072Z,10.43
2023-02-08T09:23:14.489Z,11.13
2023-02-08T09:25:42.147Z,10.65
2023-02-08T09:28:09.495Z,10.50
2023-02-08T09:30:36.818Z,10.77
2023-02-08T09:33:04.105Z,10.40
2023-02-08T09:35:31.299Z,11.25
2023-02-08T09:38:02.309Z,11.05
2023-02-08T09:40:44.017Z,10.77
2023-02-08T09:43:29.771Z,10.50
2023-02-08T09:46:03.009Z,11.02
2023-02-08T09:48:36.224Z,11.45
2023-02-08T09:51:09.728Z,11.27
2023-02-08T09:53:47.356Z,10.45
2023-02-08T09:56:18.841Z,10.65
2023-02-08T09:58:50.085Z,10.55
2023-02-08T10:01:23.881Z,10.00
2023-02-08T10:03:59.737Z,10.10
2023-02-08T10:06:27.032Z,10.82
2023-02-08T10:08:54.814Z,10.52
2023-02-08T10:11:40.864Z,10.95
2023-02-08T10:14:17.134Z,10.15
2023-02-08T10:17:19.558Z,10.52
2023-02-08T10:20:07.946Z,9.30
2023-02-08T10:22:56.210Z,9.88
2023-02-08T10:25:37.875Z,9.90
2023-02-08T10:28:14.398Z,9.88
2023-02-08T10:30:49.551Z,9.80
2023-02-08T10:33:32.144Z,9.43
2023-02-08T10:35:59.531Z,9.50
2023-02-08T10:38:45.373Z,9.95
2023-02-08T10:41:44.905Z,9.40
2023-02-08T10:44:28.117Z,9.40
2023-02-08T10:47:16.186Z,8.48
2023-02-08T10:49:46.176Z,8.95
2023-02-08T10:52:13.573Z,9.70
2023-02-08T10:54:40.918Z,10.40
2023-02-08T10:57:17.748Z,9.70
2023-02-08T10:59:51.270Z,9.32
2023-02-08T11:02:33.808Z,9.55
2023-02-08T11:05:12.457Z,8.98
2023-02-08T11:07:40.367Z,9.23
2023-02-08T11:10:19.674Z,8.57
2023-02-08T11:13:07.039Z,8.30
2023-02-08T11:15:48.709Z,8.80
2023-02-08T11:18:25.037Z,9.07
2023-02-08T11:20:58.473Z,8.68
2023-02-08T11:23:38.247Z,8.40
2023-02-08T11:26:34.090Z,7.32
2023-02-08T11:29:14.857Z,8.15
2023-02-08T11:31:59.579Z,8.65
2023-02-08T11:34:38.427Z,8.00
2023-02-08T11:37:14.503Z,8.40
2023-02-08T11:39:50.082Z,8.02
2023-02-08T11:42:31.084Z,7.75
2023-02-08T11:44:59.843Z,7.50
2023-02-08T11:47:34.046Z,7.68
2023-02-08T11:50:21.456Z,7.90
2023-02-08T11:53:04.933Z,7.72
2023-02-08T11:55:34.229Z,7.70
2023-02-08T11:58:23.713Z,8.20
2023-02-08T12:01:06.964Z,7.13
2023-02-08T12:03:40.020Z,7.47
2023-02-08T12:06:07.444Z,7.10
2023-02-08T12:08:49.286Z,7.35
2023-02-08T12:11:41.006Z,7.32
2023-02-08T12:14:24.400Z,7.03
2023-02-08T12:17:22.760Z,6.72
2023-02-08T12:19:50.123Z,7.10
2023-02-08T12:22:20.371Z,7.22
2023-02-08T12:25:13.987Z,7.47
2023-02-08T12:27:54.588Z,6.57
2023-02-08T12:30:41.606Z,6.88
2023-02-08T12:33:37.613Z,7.30
2023-02-08T12:36:34.424Z,7.22
2023-02-08T12:39:48.742Z,6.85
2023-02-08T12:43:01.754Z,6.70
2023-02-08T12:45:50.481Z,6.47
2023-02-08T12:48:37.297Z,6.97
2023-02-08T12:51:46.973Z,7.20
2023-02-08T12:54:23.067Z,6.78
2023-02-08T12:57:01.576Z,6.60
2023-02-08T12:59:47.471Z,7.35
2023-02-08T13:02:39.299Z,6.35
2023-02-08T13:05:13.947Z,6.32
2023-02-08T13:10:30.364Z,6.13
2023-02-08T13:13:04.832Z,6.35
2023-02-08T13:15:44.497Z,6.07
2023-02-08T13:18:35.836Z,5.95
2023-02-08T13:21:08.272Z,5.88
2023-02-08T13:23:51.982Z,5.63
2023-02-08T13:26:31.645Z,6.10
2023-02-08T13:29:02.522Z,5.47
2023-02-08T13:31:39.990Z,5.72
2023-02-08T13:34:42.956Z,5.30
2023-02-08T13:37:28.407Z,5.53
2023-02-08T13:40:06.489Z,5.60
2023-02-08T13:42:48.428Z,6.15
2023-02-08T13:45:34.245Z,5.78
2023-02-08T13:48:07.367Z,5.90
2023-02-08T13:50:39.994Z,4.90
2023-02-08T13:53:07.528Z,4.80
2023-02-08T13:56:05.666Z,4.60
2023-02-08T13:58:50.967Z,4.90
2023-02-08T14:01:24.265Z,5.40
2023-02-08T14:04:09.930Z,5.18
2023-02-08T14:06:41.714Z,5.68
2023-02-08T14:09:44.349Z,5.35
2023-02-08T14:12:35.349Z,5.07
2023-02-08T14:15:17.928Z,4.90
2023-02-08T14:17:58.623Z,5.18
2023-02-08T14:20:36.195Z,4.93
2023-02-08T14:23:07.270Z,5.03
2023-02-08T14:25:46.627Z,4.55
2023-02-08T14:28:30.790Z,5.03
2023-02-08T14:31:01.151Z,5.37
2023-02-08T14:33:38.801Z,5.38
2023-02-08T14:36:28.056Z,5.43
2023-02-08T14:39:21.582Z,5.45
2023-02-08T14:41:50.567Z,5.60
2023-02-08T14:44:41.620Z,5.10
2023-02-08T14:47:11.910Z,4.88
2023-02-08T14:49:45.333Z,5.38
2023-02-08T14:52:25.404Z,4.82
2023-02-08T14:55:06.062Z,5.05
2023-02-08T14:57:36.298Z,5.35
2023-02-08T15:00:15.846Z,4.35
2023-02-08T15:02:46.137Z,4.90
2023-02-08T15:05:25.940Z,4.57
2023-02-08T15:08:00.070Z,4.88
2023-02-08T15:10:30.347Z,4.72
2023-02-08T15:13:02.413Z,4.40
2023-02-08T15:15:36.611Z,4.47
2023-02-08T15:18:06.195Z,4.75
2023-02-08T15:20:37.072Z,4.32
2023-02-08T15:23:07.261Z,4.30
2023-02-08T15:25:36.815Z,4.32
2023-02-08T15:28:20.809Z,4.15
2023-02-08T15:30:58.105Z,4.03
2023-02-08T15:33:26.354Z,3.70
2023-02-08T15:36:08.685Z,4.22
2023-02-08T15:38:38.710Z,4.20
2023-02-08T15:41:12.139Z,3.95
2023-02-08T15:43:41.368Z,3.95
2023-02-08T15:46:23.567Z,3.90
2023-02-08T15:48:52.053Z,3.85
2023-02-08T15:51:23.154Z,3.88
2023-02-08T15:53:54.554Z,3.85
2023-02-08T15:56:38.615Z,4.03
2023-02-08T15:59:16.376Z,3.97
2023-02-08T16:01:47.532Z,4.00
2023-02-08T16:04:14.991Z,3.95
2023-02-08T16:06:55.043Z,3.72
2023-02-08T16:09:29.942Z,3.83
2023-02-08T16:12:00.449Z,4.15
2023-02-08T16:14:30.368Z,3.70
2023-02-08T16:16:59.572Z,3.95
2023-02-08T16:19:28.091Z,3.78
2023-02-08T16:22:22.148Z,4.60
2023-02-08T16:24:50.970Z,4.75
2023-02-08T16:27:30.184Z,6.35
2023-02-08T16:29:58.134Z,5.25
2023-02-08T16:32:32.479Z,5.07
2023-02-08T16:35:10.494Z,5.00
2023-02-08T16:37:38.040Z,5.00
2023-02-08T16:40:26.715Z,5.30
2023-02-08T16:43:13.898Z,5.35
2023-02-08T16:45:41.184Z,6.47
2023-02-08T16:48:33.205Z,5.22
2023-02-08T16:51:01.743Z,4.70
2023-02-08T16:53:41.339Z,5.57
2023-02-08T16:56:10.538Z,5.35
2023-02-08T16:58:38.068Z,5.40
2023-02-08T17:01:05.686Z,5.28
2023-02-08T17:03:33.122Z,5.60
2023-02-08T17:06:01.068Z,5.45
2023-02-08T17:08:28.393Z,5.28
2023-02-08T17:10:58.840Z,5.75
2023-02-08T17:13:29.379Z,5.57
2023-02-08T17:16:00.167Z,5.45
2023-02-08T17:18:27.523Z,5.53
2023-02-08T17:20:59.605Z,5.75
2023-02-08T17:23:27.200Z,6.03
2023-02-08T17:25:54.546Z,6.60
2023-02-08T17:28:22.540Z,6.35
2023-02-08T17:30:50.722Z,7.65
2023-02-08T17:33:18.670Z,7.40
2023-02-08T17:35:48.748Z,7.53
2023-02-08T17:38:16.256Z,7.75
2023-02-08T17:40:44.337Z,8.05
2023-02-08T17:43:13.370Z,8.23
2023-02-08T17:45:42.768Z,8.05
2023-02-08T17:48:10.569Z,8.57
2023-02-08T17:50:40.554Z,7.82
2023-02-08T17:53:08.451Z,8.63
2023-02-08T17:55:35.744Z,7.90
2023-02-08T17:58:03.024Z,8.55
2023-02-08T18:00:30.384Z,8.80
2023-02-08T18:03:00.510Z,9.20
2023-02-08T18:05:28.852Z,8.57
2023-02-08T18:07:57.308Z,8.10
2023-02-08T18:10:25.464Z,9.05
2023-02-08T18:12:53.167Z,8.95
2023-02-08T18:15:21.945Z,8.00
2023-02-08T18:17:52.516Z,8.68
2023-02-08T18:20:19.980Z,8.05
2023-02-08T18:22:47.329Z,8.30
2023-02-08T18:25:16.134Z,7.88
2023-02-08T18:27:43.407Z,8.40
2023-02-08T18:30:12.422Z,8.30
2023-02-08T18:32:40.142Z,8.43
2023-02-08T18:35:08.823Z,8.55
2023-02-08T18:37:37.556Z,8.02
2023-02-08T18:40:07.360Z,7.80
2023-02-08T18:42:36.174Z,7.50
2023-02-08T18:45:04.947Z,7.97
2023-02-08T18:47:32.550Z,8.38
2023-02-08T18:49:59.871Z,8.20
2023-02-08T18:52:27.311Z,8.52
2023-02-08T18:54:54.616Z,8.15
2023-02-08T18:57:21.878Z,8.90
2023-02-08T18:59:49.134Z,9.27
2023-02-08T19:02:21.720Z,8.23
2023-02-08T19:04:49.180Z,8.45
2023-02-08T19:07:16.531Z,9.50
2023-02-08T19:09:44.043Z,9.38
2023-02-08T19:12:15.302Z,9.00
2023-02-08T19:14:43.667Z,9.88
2023-02-08T19:17:13.612Z,9.55
2023-02-08T19:19:42.162Z,9.15
2023-02-08T19:22:09.808Z,9.38
2023-02-08T19:24:37.105Z,9.25
2023-02-08T19:27:04.972Z,9.30
2023-02-08T19:29:33.552Z,9.40
2023-02-08T19:32:01.373Z,9.43
2023-02-08T19:34:28.697Z,9.25
2023-02-08T19:36:56.025Z,8.68
2023-02-08T19:39:26.035Z,9.80
2023-02-08T19:41:53.833Z,9.27
2023-02-08T19:44:21.812Z,8.68
2023-02-08T19:46:54.793Z,9.07
2023-02-08T19:49:23.708Z,9.00
2023-02-08T19:51:51.207Z,9.13
2023-02-08T19:54:19.887Z,8.07
2023-02-08T19:56:47.444Z,8.80
2023-02-08T19:59:23.884Z,8.82
2023-02-08T20:01:51.668Z,8.20
2023-02-08T20:04:19.234Z,8.50
2023-02-08T20:06:46.753Z,8.07
2023-02-08T20:09:16.638Z,7.90
2023-02-08T20:11:56.467Z,8.10
2023-02-08T20:14:25.863Z,8.10
2023-02-08T20:16:53.294Z,7.53
2023-02-08T20:19:20.532Z,7.82
2023-02-08T20:21:47.892Z,7.25
2023-02-08T20:24:15.396Z,7.75
2023-02-08T20:26:45.148Z,7.47
2023-02-08T20:29:13.451Z,7.80
2023-02-08T20:31:43.167Z,8.02
2023-02-08T20:34:13.683Z,7.43
2023-02-08T20:36:44.965Z,7.78
2023-02-08T20:39:16.099Z,7.70
2023-02-08T20:41:44.370Z,7.53
2023-02-08T20:44:13.675Z,7.53
2023-02-08T20:46:43.085Z,7.88
2023-02-08T20:49:11.877Z,7.15
2023-02-08T20:51:39.248Z,7.75
2023-02-08T20:54:06.572Z,7.13
2023-02-08T20:56:35.976Z,6.78
2023-02-08T20:59:08.846Z,7.50
2023-02-08T21:01:36.898Z,6.97
2023-02-08T21:04:05.451Z,7.45
2023-02-08T21:06:35.169Z,7.35
2023-02-08T21:09:12.413Z,6.50
2023-02-08T21:11:39.941Z,6.95
2023-02-08T21:14:13.576Z,6.72
2023-02-08T21:16:41.399Z,6.43
2023-02-08T21:19:10.741Z,6.90
2023-02-08T21:21:38.053Z,7.10
2023-02-08T21:24:05.713Z,7.00
2023-02-08T21:26:33.190Z,6.72
2023-02-08T21:29:00.628Z,6.57
2023-02-08T21:31:28.044Z,6.43
2023-02-08T21:33:55.352Z,6.80
2023-02-08T21:36:24.393Z,6.10
2023-02-08T21:38:52.070Z,6.72
2023-02-08T21:41:25.461Z,6.72
2023-02-08T21:43:56.037Z,6.63
2023-02-08T21:46:28.430Z,6.72
2023-02-08T21:49:15.681Z,6.82
2023-02-08T21:52:02.143Z,6.45
2023-02-08T21:54:41.392Z,6.65
2023-02-08T21:57:19.646Z,6.43
2023-02-08T21:59:50.163Z,6.25
2023-02-08T22:02:29.156Z,6.30
2023-02-08T22:04:58.275Z,7.00
2023-02-08T22:07:26.695Z,7.53
2023-02-08T22:09:54.382Z,6.65
2023-02-08T22:12:23.322Z,7.00
2023-02-08T22:14:51.610Z,7.10
2023-02-08T22:17:19.133Z,8.00
2023-02-08T22:19:46.414Z,8.30
2023-02-08T22:22:13.631Z,7.60
2023-02-08T22:24:40.938Z,8.23
2023-02-08T22:27:08.185Z,7.65
2023-02-08T22:29:35.636Z,7.50
2023-02-08T22:32:03.078Z,7.22
2023-02-08T22:34:30.451Z,7.30
2023-02-08T22:36:57.906Z,6.93
2023-02-08T22:39:25.309Z,6.60
2023-02-08T22:41:52.568Z,7.25
2023-02-08T22:44:19.979Z,6.68
2023-02-08T22:46:47.307Z,7.25
2023-02-08T22:49:14.610Z,7.25
2023-02-08T22:51:41.908Z,7.22
2023-02-08T22:54:09.196Z,7.00
2023-02-08T22:56:36.632Z,6.43
2023-02-08T22:59:03.935Z,6.47
2023-02-08T23:01:31.258Z,6.80
2023-02-08T23:04:00.400Z,6.63
2023-02-08T23:06:28.141Z,6.68
2023-02-08T23:08:55.370Z,5.78
2023-02-08T23:11:22.869Z,6.78
2023-02-08T23:13:50.337Z,6.38
2023-02-08T23:16:19.109Z,5.78
2023-02-08T23:18:46.990Z,6.15
2023-02-08T23:21:18.046Z,6.65
2023-02-08T23:23:47.272Z,6.22
2023-02-08T23:26:17.498Z,6.22
2023-02-08T23:28:45.586Z,5.55
2023-02-08T23:31:14.459Z,6.07
2023-02-08T23:33:41.957Z,5.65
2023-02-08T23:36:16.160Z,5.90
2023-02-08T23:38:44.326Z,6.05
2023-02-08T23:41:14.213Z,5.85
2023-02-08T23:43:41.554Z,6.07
2023-02-08T23:46:11.606Z,5.82
2023-02-08T23:48:39.484Z,6.22
2023-02-08T23:51:07.898Z,5.80
2023-02-08T23:53:36.799Z,6.07
2023-02-08T23:56:26.765Z,5.40
2023-02-08T23:58:56.604Z,5.72
